<?xml version='1.0' encoding='UTF-8'?><gpx version="1.1" creator="JPX - https://github.com/jenetics/jpx" xmlns="http://www.topografix.com/GPX/1/1"><trk><trkseg><trkpt lat="44.6778156164638" lon="2.556497938560025"><ele>481.00000000000006</ele><time>2026-03-26T16:11:21.999Z</time></trkpt><trkpt lat="44.6778566679762" lon="2.556418231583121"><ele>481.0</ele><time>2026-03-26T16:11:22.999Z</time></trkpt><trkpt lat="44.677887932873226" lon="2.5563299959508177"><ele>481.0</ele><time>2026-03-26T16:11:23.999Z</time></trkpt><trkpt lat="44.677943859627526" lon="2.55623312855073"><ele>481.0</ele><time>2026-03-26T16:11:24.999Z</time></trkpt><trkpt lat="44.67799413120147" lon="2.5561483441499178"><ele>481.00000000000006</ele><time>2026-03-26T16:11:25.999Z</time></trkpt><trkpt lat="44.678047878611956" lon="2.5560637552659946"><ele>481.0</ele><time>2026-03-26T16:11:26.999Z</time></trkpt><trkpt lat="44.67809793719262" lon="2.55598597630221"><ele>484.33333333333337</ele><time>2026-03-26T16:11:27.999Z</time></trkpt><trkpt lat="44.67814874981441" lon="2.5558973778536567"><ele>487.6666666666667</ele><time>2026-03-26T16:11:28.999Z</time></trkpt><trkpt lat="44.67818490594122" lon="2.555811138674314"><ele>491.0</ele><time>2026-03-26T16:11:29.999Z</time></trkpt><trkpt lat="44.67823402263425" lon="2.555735606599192"><ele>494.33333333333337</ele><time>2026-03-26T16:11:30.999Z</time></trkpt><trkpt lat="44.678293287072876" lon="2.5556740690410704"><ele>497.6666666666667</ele><time>2026-03-26T16:11:31.999Z</time></trkpt><trkpt lat="44.678356249668845" lon="2.5556047447160086"><ele>501.0</ele><time>2026-03-26T16:11:32.999Z</time></trkpt><trkpt lat="44.67841504825077" lon="2.5555405872380828"><ele>501.0</ele><time>2026-03-26T16:11:33.999Z</time></trkpt><trkpt lat="44.67852775042898" lon="2.5554381575069116"><ele>501.0</ele><time>2026-03-26T16:11:36Z</time></trkpt><trkpt lat="44.6785862295362" lon="2.555385707165993"><ele>501.0</ele><time>2026-03-26T16:11:37Z</time></trkpt><trkpt lat="44.678640346544505" lon="2.5553335978981075"><ele>501.0</ele><time>2026-03-26T16:11:38Z</time></trkpt><trkpt lat="44.67869753359295" lon="2.555264990549068"><ele>501.0</ele><time>2026-03-26T16:11:39Z</time></trkpt><trkpt lat="44.67874309383629" lon="2.555198006575229"><ele>501.0</ele><time>2026-03-26T16:11:40Z</time></trkpt><trkpt lat="44.678782453993406" lon="2.5551102050905388"><ele>498.4</ele><time>2026-03-26T16:11:41Z</time></trkpt><trkpt lat="44.67881230830835" lon="2.555029265668955"><ele>495.8</ele><time>2026-03-26T16:11:42Z</time></trkpt><trkpt lat="44.67884463269629" lon="2.5548492392132114"><ele>493.19999999999993</ele><time>2026-03-26T16:11:44Z</time></trkpt><trkpt lat="44.67884713787816" lon="2.554749081095211"><ele>490.59999999999997</ele><time>2026-03-26T16:11:45Z</time></trkpt><trkpt lat="44.678855021872536" lon="2.554647979399323"><ele>488.0</ele><time>2026-03-26T16:11:46Z</time></trkpt><trkpt lat="44.67886365364021" lon="2.5544930425415426"><ele>487.99999999999994</ele><time>2026-03-26T16:11:48Z</time></trkpt><trkpt lat="44.678839861267996" lon="2.5543517534638727"><ele>488.0</ele><time>2026-03-26T16:11:50Z</time></trkpt><trkpt lat="44.678807939520205" lon="2.554193942538002"><ele>488.0</ele><time>2026-03-26T16:11:52Z</time></trkpt><trkpt lat="44.67878879213942" lon="2.5541036905183985"><ele>488.0</ele><time>2026-03-26T16:11:54Z</time></trkpt><trkpt lat="44.67882132085259" lon="2.5540241012457527"><ele>487.99999999999994</ele><time>2026-03-26T16:11:56Z</time></trkpt><trkpt lat="44.67887856560157" lon="2.5539609886343926"><ele>488.0</ele><time>2026-03-26T16:11:57Z</time></trkpt><trkpt lat="44.67893156348949" lon="2.553902996427406"><ele>487.99999999999994</ele><time>2026-03-26T16:11:58Z</time></trkpt><trkpt lat="44.67898886298314" lon="2.553840697371724"><ele>488.0</ele><time>2026-03-26T16:11:59Z</time></trkpt><trkpt lat="44.67904231109083" lon="2.5537825687883333"><ele>488.0</ele><time>2026-03-26T16:12:00Z</time></trkpt><trkpt lat="44.6791191374485" lon="2.553699014431325"><ele>488.0</ele><time>2026-03-26T16:12:02Z</time></trkpt><trkpt lat="44.67920425938795" lon="2.5537921467385543"><ele>487.99999999999994</ele><time>2026-03-26T16:12:04Z</time></trkpt><trkpt lat="44.67921792186242" lon="2.553906706622556"><ele>488.0</ele><time>2026-03-26T16:12:05Z</time></trkpt><trkpt lat="44.679246470552215" lon="2.5540160184629777"><ele>487.99999999999994</ele><time>2026-03-26T16:12:06Z</time></trkpt><trkpt lat="44.67927084192757" lon="2.5541068997268623"><ele>488.0</ele><time>2026-03-26T16:12:07Z</time></trkpt><trkpt lat="44.67931161587923" lon="2.5542046871750914"><ele>488.0</ele><time>2026-03-26T16:12:08Z</time></trkpt><trkpt lat="44.67936439192749" lon="2.5543032699559993"><ele>488.0</ele><time>2026-03-26T16:12:09Z</time></trkpt><trkpt lat="44.67942979582858" lon="2.554373919361809"><ele>487.99999999999994</ele><time>2026-03-26T16:12:10Z</time></trkpt><trkpt lat="44.67950268622941" lon="2.5544050079199163"><ele>488.0</ele><time>2026-03-26T16:12:11Z</time></trkpt><trkpt lat="44.679573094094195" lon="2.554460351287147"><ele>491.49999999999994</ele><time>2026-03-26T16:12:12Z</time></trkpt><trkpt lat="44.67962295666698" lon="2.554534564430305"><ele>495.0</ele><time>2026-03-26T16:12:13Z</time></trkpt><trkpt lat="44.67966782881491" lon="2.554642388406775"><ele>498.5</ele><time>2026-03-26T16:12:14Z</time></trkpt><trkpt lat="44.67969822628474" lon="2.5547474300171378"><ele>502.0</ele><time>2026-03-26T16:12:15Z</time></trkpt><trkpt lat="44.679731923715785" lon="2.5548696785840845"><ele>505.49999999999994</ele><time>2026-03-26T16:12:16Z</time></trkpt><trkpt lat="44.67975723600125" lon="2.5549923300008763"><ele>509.0</ele><time>2026-03-26T16:12:17Z</time></trkpt><trkpt lat="44.679775366889196" lon="2.555110731253177"><ele>509.0</ele><time>2026-03-26T16:12:18Z</time></trkpt><trkpt lat="44.67978869223917" lon="2.555249217228044"><ele>509.0</ele><time>2026-03-26T16:12:19Z</time></trkpt><trkpt lat="44.67980189088334" lon="2.5553971655156964"><ele>509.0</ele><time>2026-03-26T16:12:20Z</time></trkpt><trkpt lat="44.67981089385553" lon="2.555535649047301"><ele>509.0</ele><time>2026-03-26T16:12:21Z</time></trkpt><trkpt lat="44.67980611445868" lon="2.555682473099677"><ele>509.0</ele><time>2026-03-26T16:12:22Z</time></trkpt><trkpt lat="44.67980271440618" lon="2.555827154022109"><ele>509.4</ele><time>2026-03-26T16:12:23Z</time></trkpt><trkpt lat="44.67978078691925" lon="2.5559742036102655"><ele>509.79999999999995</ele><time>2026-03-26T16:12:24Z</time></trkpt><trkpt lat="44.67976429969677" lon="2.5561147955280337"><ele>510.20000000000005</ele><time>2026-03-26T16:12:25Z</time></trkpt><trkpt lat="44.67973942904406" lon="2.556254774029685"><ele>510.6</ele><time>2026-03-26T16:12:26Z</time></trkpt><trkpt lat="44.679710979971105" lon="2.5563835521208276"><ele>511.0</ele><time>2026-03-26T16:12:27Z</time></trkpt><trkpt lat="44.67968062602564" lon="2.5565089442942264"><ele>512.8</ele><time>2026-03-26T16:12:28Z</time></trkpt><trkpt lat="44.679649538155516" lon="2.5566431650971877"><ele>514.6</ele><time>2026-03-26T16:12:29Z</time></trkpt><trkpt lat="44.679614510266" lon="2.556781936280534"><ele>516.4</ele><time>2026-03-26T16:12:30Z</time></trkpt><trkpt lat="44.679586043495384" lon="2.5569128591774914"><ele>518.2</ele><time>2026-03-26T16:12:31Z</time></trkpt><trkpt lat="44.679559768356604" lon="2.557058085600205"><ele>520.0</ele><time>2026-03-26T16:12:32Z</time></trkpt><trkpt lat="44.67953739126641" lon="2.557212743629243"><ele>520.0</ele><time>2026-03-26T16:12:33Z</time></trkpt><trkpt lat="44.67951691114642" lon="2.5573819722302034"><ele>520.0</ele><time>2026-03-26T16:12:34Z</time></trkpt><trkpt lat="44.679495104991204" lon="2.5575452679729374"><ele>520.0</ele><time>2026-03-26T16:12:35Z</time></trkpt><trkpt lat="44.67947132108147" lon="2.557710493415303"><ele>520.0</ele><time>2026-03-26T16:12:36Z</time></trkpt><trkpt lat="44.67945308775695" lon="2.5578657528140134"><ele>518.3333333333334</ele><time>2026-03-26T16:12:37Z</time></trkpt><trkpt lat="44.67943910831449" lon="2.557986177373101"><ele>516.6666666666667</ele><time>2026-03-26T16:12:38Z</time></trkpt><trkpt lat="44.67942432217622" lon="2.558108163552005"><ele>515.0</ele><time>2026-03-26T16:12:39Z</time></trkpt><trkpt lat="44.679426527655096" lon="2.558207124936401"><ele>513.3333333333334</ele><time>2026-03-26T16:12:40Z</time></trkpt><trkpt lat="44.679425066585665" lon="2.5583188812659508"><ele>511.6666666666667</ele><time>2026-03-26T16:12:41Z</time></trkpt><trkpt lat="44.67947278488938" lon="2.5583924906543403"><ele>510.0</ele><time>2026-03-26T16:12:42Z</time></trkpt><trkpt lat="44.6795456980996" lon="2.5584522426788783"><ele>510.0</ele><time>2026-03-26T16:12:43.999Z</time></trkpt><trkpt lat="44.679611649809296" lon="2.558419306030865"><ele>510.0</ele><time>2026-03-26T16:12:45.999Z</time></trkpt><trkpt lat="44.67960135515538" lon="2.5583251451349143"><ele>510.0</ele><time>2026-03-26T16:12:58.999Z</time></trkpt><trkpt lat="44.679637628031024" lon="2.5581641859089275"><ele>510.0</ele><time>2026-03-26T16:13:00.999Z</time></trkpt><trkpt lat="44.67964036486027" lon="2.5579297930260245"><ele>510.0</ele><time>2026-03-26T16:13:01.999Z</time></trkpt><trkpt lat="44.67970270487494" lon="2.5577622789340277"><ele>511.6666666666667</ele><time>2026-03-26T16:13:03.999Z</time></trkpt><trkpt lat="44.67973972361304" lon="2.5576681564695787"><ele>513.3333333333334</ele><time>2026-03-26T16:13:04.999Z</time></trkpt><trkpt lat="44.67977792275679" lon="2.557569679777589"><ele>515.0</ele><time>2026-03-26T16:13:05.999Z</time></trkpt><trkpt lat="44.679811880338434" lon="2.55747848461793"><ele>516.6666666666667</ele><time>2026-03-26T16:13:06.999Z</time></trkpt><trkpt lat="44.679848132561396" lon="2.5573920488406388"><ele>518.3333333333334</ele><time>2026-03-26T16:13:07.999Z</time></trkpt><trkpt lat="44.679882418743304" lon="2.5572911081591916"><ele>520.0</ele><time>2026-03-26T16:13:08.999Z</time></trkpt><trkpt lat="44.67991383956545" lon="2.5571916862877675"><ele>520.0</ele><time>2026-03-26T16:13:09.999Z</time></trkpt><trkpt lat="44.679945743669045" lon="2.5570878679437494"><ele>520.0</ele><time>2026-03-26T16:13:10.999Z</time></trkpt><trkpt lat="44.679976883974966" lon="2.556985602661597"><ele>520.0</ele><time>2026-03-26T16:13:11.999Z</time></trkpt><trkpt lat="44.680009048892586" lon="2.556887017450871"><ele>520.0</ele><time>2026-03-26T16:13:12.999Z</time></trkpt><trkpt lat="44.68003496081087" lon="2.5568038235218746"><ele>520.0</ele><time>2026-03-26T16:13:13.999Z</time></trkpt><trkpt lat="44.680123523239345" lon="2.556813403661412"><ele>520.0</ele><time>2026-03-26T16:13:17.999Z</time></trkpt><trkpt lat="44.68008951344567" lon="2.55691606741218"><ele>520.0</ele><time>2026-03-26T16:13:18.999Z</time></trkpt><trkpt lat="44.680083169383195" lon="2.5570220003886663"><ele>520.0</ele><time>2026-03-26T16:13:19.999Z</time></trkpt><trkpt lat="44.68007072412761" lon="2.557137619140178"><ele>520.0</ele><time>2026-03-26T16:13:20.999Z</time></trkpt><trkpt lat="44.68008435669738" lon="2.5572557753184215"><ele>520.0</ele><time>2026-03-26T16:13:21.999Z</time></trkpt><trkpt lat="44.6801348833102" lon="2.55735963069361"><ele>520.0</ele><time>2026-03-26T16:13:22.999Z</time></trkpt><trkpt lat="44.68020984577169" lon="2.5574375889300067"><ele>520.0</ele><time>2026-03-26T16:13:23.999Z</time></trkpt><trkpt lat="44.68030084855872" lon="2.557503966911842"><ele>522.2</ele><time>2026-03-26T16:13:24.999Z</time></trkpt><trkpt lat="44.680391092616375" lon="2.557567989156054"><ele>524.4</ele><time>2026-03-26T16:13:25.999Z</time></trkpt><trkpt lat="44.68046851525399" lon="2.5576684706682493"><ele>526.6</ele><time>2026-03-26T16:13:26.999Z</time></trkpt><trkpt lat="44.6805508534403" lon="2.5577724048286217"><ele>528.8</ele><time>2026-03-26T16:13:27.999Z</time></trkpt><trkpt lat="44.680628115373615" lon="2.557881504257551"><ele>531.0</ele><time>2026-03-26T16:13:28.999Z</time></trkpt><trkpt lat="44.68071338671218" lon="2.5579892183313264"><ele>531.0</ele><time>2026-03-26T16:13:29.999Z</time></trkpt><trkpt lat="44.68079497053855" lon="2.558076193252081"><ele>531.0</ele><time>2026-03-26T16:13:30.999Z</time></trkpt><trkpt lat="44.68086741264976" lon="2.5581627408962113"><ele>531.0</ele><time>2026-03-26T16:13:31.999Z</time></trkpt><trkpt lat="44.68093835042449" lon="2.5582316565566874"><ele>531.0</ele><time>2026-03-26T16:13:32.999Z</time></trkpt><trkpt lat="44.68101456074639" lon="2.5583114012260926"><ele>531.0</ele><time>2026-03-26T16:13:33.999Z</time></trkpt><trkpt lat="44.68110096919861" lon="2.558379464354793"><ele>535.0</ele><time>2026-03-26T16:13:34.999Z</time></trkpt><trkpt lat="44.681205566765584" lon="2.5584180588840324"><ele>539.0</ele><time>2026-03-26T16:13:35.999Z</time></trkpt><trkpt lat="44.68131282373199" lon="2.5584498050976805"><ele>543.0</ele><time>2026-03-26T16:13:36.999Z</time></trkpt><trkpt lat="44.68141467763" lon="2.558468465029538"><ele>547.0</ele><time>2026-03-26T16:13:37.999Z</time></trkpt><trkpt lat="44.681519423759134" lon="2.5584939597670906"><ele>551.0</ele><time>2026-03-26T16:13:38.999Z</time></trkpt><trkpt lat="44.68162434116563" lon="2.5585347463533066"><ele>551.0</ele><time>2026-03-26T16:13:39.999Z</time></trkpt><trkpt lat="44.6817112957907" lon="2.558610367112071"><ele>551.0</ele><time>2026-03-26T16:13:40.999Z</time></trkpt><trkpt lat="44.68177724490534" lon="2.558727312255039"><ele>551.0</ele><time>2026-03-26T16:13:42Z</time></trkpt><trkpt lat="44.68184379392548" lon="2.5588182187063118"><ele>551.0</ele><time>2026-03-26T16:13:43Z</time></trkpt><trkpt lat="44.68193000872892" lon="2.5588738441366883"><ele>551.0</ele><time>2026-03-26T16:13:44Z</time></trkpt><trkpt lat="44.68202537155006" lon="2.5588819726815077"><ele>552.0</ele><time>2026-03-26T16:13:45Z</time></trkpt><trkpt lat="44.68212665827955" lon="2.558831348166066"><ele>553.0</ele><time>2026-03-26T16:13:46Z</time></trkpt><trkpt lat="44.682206632380996" lon="2.558743677432098"><ele>554.0</ele><time>2026-03-26T16:13:47Z</time></trkpt><trkpt lat="44.68227058333132" lon="2.558615712628504"><ele>555.0</ele><time>2026-03-26T16:13:48Z</time></trkpt><trkpt lat="44.68232958117213" lon="2.5584829152496553"><ele>556.0</ele><time>2026-03-26T16:13:49Z</time></trkpt><trkpt lat="44.682393792948496" lon="2.5583469339700584"><ele>556.0</ele><time>2026-03-26T16:13:50Z</time></trkpt><trkpt lat="44.682464396014105" lon="2.5582163333761123"><ele>556.0</ele><time>2026-03-26T16:13:51Z</time></trkpt><trkpt lat="44.68254404387512" lon="2.558123902911147"><ele>556.0</ele><time>2026-03-26T16:13:52Z</time></trkpt><trkpt lat="44.68261920076922" lon="2.5580573942408145"><ele>556.0</ele><time>2026-03-26T16:13:54Z</time></trkpt><trkpt lat="44.68268282775834" lon="2.5579971470416902"><ele>556.0</ele><time>2026-03-26T16:14:02Z</time></trkpt><trkpt lat="44.682766806198224" lon="2.557915345743279"><ele>558.8</ele><time>2026-03-26T16:14:04Z</time></trkpt><trkpt lat="44.68285593012757" lon="2.557842347606335"><ele>561.6</ele><time>2026-03-26T16:15:04.999Z</time></trkpt><trkpt lat="44.68295953569209" lon="2.5577949922426613"><ele>564.4</ele><time>2026-03-26T16:15:06.999Z</time></trkpt><trkpt lat="44.6830384364607" lon="2.557875252394022"><ele>567.2</ele><time>2026-03-26T16:15:08.999Z</time></trkpt><trkpt lat="44.68304931918959" lon="2.55805186635774"><ele>570.0</ele><time>2026-03-26T16:15:10.999Z</time></trkpt><trkpt lat="44.68305590536868" lon="2.5581507381438637"><ele>570.0</ele><time>2026-03-26T16:15:11.999Z</time></trkpt><trkpt lat="44.68307093265598" lon="2.5582620138062477"><ele>570.0</ele><time>2026-03-26T16:15:12.999Z</time></trkpt><trkpt lat="44.6830889460489" lon="2.5583762909019305"><ele>570.0</ele><time>2026-03-26T16:15:13.999Z</time></trkpt><trkpt lat="44.68311537840106" lon="2.5585011720611965"><ele>570.0</ele><time>2026-03-26T16:15:14.999Z</time></trkpt><trkpt lat="44.68315296480609" lon="2.5586569202605824"><ele>570.0</ele><time>2026-03-26T16:15:15.999Z</time></trkpt><trkpt lat="44.68320702205824" lon="2.5588364637841248"><ele>568.75</ele><time>2026-03-26T16:15:16.999Z</time></trkpt><trkpt lat="44.68326333675329" lon="2.5590277857852337"><ele>567.5</ele><time>2026-03-26T16:15:17.999Z</time></trkpt><trkpt lat="44.68331883051297" lon="2.5592107512568103"><ele>566.25</ele><time>2026-03-26T16:15:18.999Z</time></trkpt><trkpt lat="44.68336413035643" lon="2.5593627430171275"><ele>565.0</ele><time>2026-03-26T16:15:19.999Z</time></trkpt><trkpt lat="44.68340487711451" lon="2.5594865662794213"><ele>566.1666666666667</ele><time>2026-03-26T16:15:20.999Z</time></trkpt><trkpt lat="44.68344213932964" lon="2.559597433803465"><ele>567.3333333333334</ele><time>2026-03-26T16:15:21.999Z</time></trkpt><trkpt lat="44.683481630881204" lon="2.559703631347787"><ele>568.5</ele><time>2026-03-26T16:15:22.999Z</time></trkpt><trkpt lat="44.683522850725936" lon="2.5597918616991566"><ele>569.6666666666666</ele><time>2026-03-26T16:15:23.999Z</time></trkpt><trkpt lat="44.683570688413155" lon="2.559859894495937"><ele>570.8333333333333</ele><time>2026-03-26T16:15:24.999Z</time></trkpt><trkpt lat="44.68363175833842" lon="2.559911976068054"><ele>572.0</ele><time>2026-03-26T16:15:25.999Z</time></trkpt><trkpt lat="44.68369983660782" lon="2.5599524389729083"><ele>572.0</ele><time>2026-03-26T16:15:26.999Z</time></trkpt><trkpt lat="44.68377631846117" lon="2.5599972839563225"><ele>572.0</ele><time>2026-03-26T16:15:27.999Z</time></trkpt><trkpt lat="44.68386429643156" lon="2.5600491067198834"><ele>572.0</ele><time>2026-03-26T16:15:28.999Z</time></trkpt><trkpt lat="44.683947157343866" lon="2.5600973566053313"><ele>572.0</ele><time>2026-03-26T16:15:29.999Z</time></trkpt><trkpt lat="44.68403647502058" lon="2.5601490424176663"><ele>572.0</ele><time>2026-03-26T16:15:30.999Z</time></trkpt><trkpt lat="44.68412507873454" lon="2.5601829543793744"><ele>572.0</ele><time>2026-03-26T16:15:31.999Z</time></trkpt><trkpt lat="44.68422093292314" lon="2.560180871717322"><ele>572.0</ele><time>2026-03-26T16:15:32.999Z</time></trkpt><trkpt lat="44.68431745904864" lon="2.5601593168804198"><ele>572.0</ele><time>2026-03-26T16:15:33.999Z</time></trkpt><trkpt lat="44.6844199853797" lon="2.560133128775325"><ele>572.0</ele><time>2026-03-26T16:15:34.999Z</time></trkpt><trkpt lat="44.68452898687638" lon="2.560105052083663"><ele>572.0</ele><time>2026-03-26T16:15:35.999Z</time></trkpt><trkpt lat="44.68464577579994" lon="2.5600588520833387"><ele>571.75</ele><time>2026-03-26T16:15:36.999Z</time></trkpt><trkpt lat="44.68476016824236" lon="2.5599975729534603"><ele>571.5</ele><time>2026-03-26T16:15:37.999Z</time></trkpt><trkpt lat="44.68487473883313" lon="2.5599284802204956"><ele>571.25</ele><time>2026-03-26T16:15:38.999Z</time></trkpt><trkpt lat="44.684986267184215" lon="2.5598547411732975"><ele>571.0</ele><time>2026-03-26T16:15:39.999Z</time></trkpt><trkpt lat="44.68509542484429" lon="2.559776539653256"><ele>571.0</ele><time>2026-03-26T16:15:40.999Z</time></trkpt><trkpt lat="44.685200590642964" lon="2.5596933456040043"><ele>571.0</ele><time>2026-03-26T16:15:41.999Z</time></trkpt><trkpt lat="44.68529808192614" lon="2.5595925032207476"><ele>571.0</ele><time>2026-03-26T16:15:42.999Z</time></trkpt><trkpt lat="44.68539063338344" lon="2.5594841201955516"><ele>571.0</ele><time>2026-03-26T16:15:43.999Z</time></trkpt><trkpt lat="44.685472413139664" lon="2.559393283152377"><ele>571.0</ele><time>2026-03-26T16:15:44.999Z</time></trkpt><trkpt lat="44.68553829218522" lon="2.5592986857828253"><ele>571.0</ele><time>2026-03-26T16:15:45.999Z</time></trkpt><trkpt lat="44.685580135192026" lon="2.5591832555795033"><ele>571.0</ele><time>2026-03-26T16:15:46.999Z</time></trkpt><trkpt lat="44.685598522024044" lon="2.559050781921544"><ele>571.0</ele><time>2026-03-26T16:15:48Z</time></trkpt><trkpt lat="44.68559107290664" lon="2.5589144775155495"><ele>571.0</ele><time>2026-03-26T16:15:49Z</time></trkpt><trkpt lat="44.68555595978215" lon="2.558777243594902"><ele>572.6</ele><time>2026-03-26T16:15:50Z</time></trkpt><trkpt lat="44.68552253132429" lon="2.5586361907696995"><ele>574.2</ele><time>2026-03-26T16:15:51Z</time></trkpt><trkpt lat="44.685509747102" lon="2.5584906114904165"><ele>575.8</ele><time>2026-03-26T16:15:52Z</time></trkpt><trkpt lat="44.6855251462214" lon="2.5583536411631496"><ele>577.4</ele><time>2026-03-26T16:15:53Z</time></trkpt><trkpt lat="44.685559625666954" lon="2.558228183354763"><ele>579.0</ele><time>2026-03-26T16:15:54Z</time></trkpt><trkpt lat="44.68560946656814" lon="2.558104220066075"><ele>579.0</ele><time>2026-03-26T16:15:55Z</time></trkpt><trkpt lat="44.68565643009831" lon="2.5579683079450706"><ele>579.0</ele><time>2026-03-26T16:15:56Z</time></trkpt><trkpt lat="44.68569604141591" lon="2.55781633926975"><ele>579.0</ele><time>2026-03-26T16:15:57Z</time></trkpt><trkpt lat="44.68574403130074" lon="2.5576640814332676"><ele>579.0</ele><time>2026-03-26T16:15:58Z</time></trkpt><trkpt lat="44.68576651758327" lon="2.55752128847409"><ele>579.0</ele><time>2026-03-26T16:15:59Z</time></trkpt><trkpt lat="44.68576801412592" lon="2.5573771527946185"><ele>580.6</ele><time>2026-03-26T16:16:00Z</time></trkpt><trkpt lat="44.685762329819504" lon="2.557232253193623"><ele>582.2</ele><time>2026-03-26T16:16:01Z</time></trkpt><trkpt lat="44.685757819707824" lon="2.557082639228298"><ele>583.8000000000001</ele><time>2026-03-26T16:16:02Z</time></trkpt><trkpt lat="44.68575039644676" lon="2.5569297484674434"><ele>585.4</ele><time>2026-03-26T16:16:03Z</time></trkpt><trkpt lat="44.68575153649131" lon="2.5567858726862145"><ele>587.0</ele><time>2026-03-26T16:16:04Z</time></trkpt><trkpt lat="44.68576149580118" lon="2.55664726614314"><ele>589.4</ele><time>2026-03-26T16:16:05Z</time></trkpt><trkpt lat="44.68579476511468" lon="2.5565129042770605"><ele>591.8000000000001</ele><time>2026-03-26T16:16:06Z</time></trkpt><trkpt lat="44.68585394096015" lon="2.556396900777621"><ele>594.2</ele><time>2026-03-26T16:16:07Z</time></trkpt><trkpt lat="44.685910420765545" lon="2.5562852120478574"><ele>596.6</ele><time>2026-03-26T16:16:08Z</time></trkpt><trkpt lat="44.68596512451656" lon="2.5561684658346975"><ele>599.0</ele><time>2026-03-26T16:16:09Z</time></trkpt><trkpt lat="44.68603140470962" lon="2.5560545232679983"><ele>597.2</ele><time>2026-03-26T16:16:10Z</time></trkpt><trkpt lat="44.686118541946804" lon="2.5559700552496336"><ele>595.4</ele><time>2026-03-26T16:16:11Z</time></trkpt><trkpt lat="44.686198241011525" lon="2.555873873402111"><ele>593.6</ele><time>2026-03-26T16:16:12Z</time></trkpt><trkpt lat="44.6862814066321" lon="2.5557595387799408"><ele>591.8</ele><time>2026-03-26T16:16:13Z</time></trkpt><trkpt lat="44.686354628362686" lon="2.555642595421376"><ele>590.0</ele><time>2026-03-26T16:16:14Z</time></trkpt><trkpt lat="44.68641962706036" lon="2.555528087890768"><ele>590.0</ele><time>2026-03-26T16:16:15Z</time></trkpt><trkpt lat="44.686481625006394" lon="2.5554173751622344"><ele>590.0</ele><time>2026-03-26T16:16:16Z</time></trkpt><trkpt lat="44.68653555061971" lon="2.5552981707570472"><ele>590.0</ele><time>2026-03-26T16:16:17Z</time></trkpt><trkpt lat="44.686578404744964" lon="2.555169373741745"><ele>590.0</ele><time>2026-03-26T16:16:18Z</time></trkpt><trkpt lat="44.68661390696042" lon="2.555035367809783"><ele>590.0</ele><time>2026-03-26T16:16:19Z</time></trkpt><trkpt lat="44.68665096625746" lon="2.5549026531781163"><ele>593.0</ele><time>2026-03-26T16:16:20Z</time></trkpt><trkpt lat="44.68670213046773" lon="2.5547770567664823"><ele>596.0</ele><time>2026-03-26T16:16:21Z</time></trkpt><trkpt lat="44.68676912094367" lon="2.554671119844746"><ele>599.0</ele><time>2026-03-26T16:16:22Z</time></trkpt><trkpt lat="44.68683109432125" lon="2.554567359722867"><ele>602.0</ele><time>2026-03-26T16:16:23Z</time></trkpt><trkpt lat="44.68688198889585" lon="2.5544668560243164"><ele>605.0</ele><time>2026-03-26T16:16:24Z</time></trkpt><trkpt lat="44.68692430819243" lon="2.5543817471815364"><ele>606.2</ele><time>2026-03-26T16:16:25Z</time></trkpt><trkpt lat="44.68698619128505" lon="2.5543112680970634"><ele>607.4</ele><time>2026-03-26T16:16:26Z</time></trkpt><trkpt lat="44.68707004646749" lon="2.554251233079681"><ele>608.6</ele><time>2026-03-26T16:16:27Z</time></trkpt><trkpt lat="44.68716683600264" lon="2.5541915507079005"><ele>609.8</ele><time>2026-03-26T16:16:28Z</time></trkpt><trkpt lat="44.687276543479555" lon="2.554150581989038"><ele>611.0</ele><time>2026-03-26T16:16:29Z</time></trkpt><trkpt lat="44.68739520274958" lon="2.5541248643311287"><ele>611.0</ele><time>2026-03-26T16:16:30Z</time></trkpt><trkpt lat="44.68750263164101" lon="2.5540963557138765"><ele>611.0</ele><time>2026-03-26T16:16:31Z</time></trkpt><trkpt lat="44.68759416811014" lon="2.5540465132417687"><ele>611.0</ele><time>2026-03-26T16:16:32Z</time></trkpt><trkpt lat="44.68767835320588" lon="2.553965063655668"><ele>611.0</ele><time>2026-03-26T16:16:33Z</time></trkpt><trkpt lat="44.68775132617672" lon="2.553856261090332"><ele>611.0</ele><time>2026-03-26T16:16:34Z</time></trkpt><trkpt lat="44.687819603262376" lon="2.553731395512766"><ele>611.0</ele><time>2026-03-26T16:16:35Z</time></trkpt><trkpt lat="44.68787867905272" lon="2.5535915580531507"><ele>611.0</ele><time>2026-03-26T16:16:36Z</time></trkpt><trkpt lat="44.68792809370267" lon="2.5534421461485213"><ele>611.0</ele><time>2026-03-26T16:16:37Z</time></trkpt><trkpt lat="44.68797091929115" lon="2.553284147141842"><ele>611.0</ele><time>2026-03-26T16:16:38Z</time></trkpt><trkpt lat="44.688008769056324" lon="2.5531220941065538"><ele>611.0</ele><time>2026-03-26T16:16:39Z</time></trkpt><trkpt lat="44.68803786712962" lon="2.5529696858252833"><ele>611.0</ele><time>2026-03-26T16:16:40Z</time></trkpt><trkpt lat="44.68805327583603" lon="2.5528404408478234"><ele>611.0</ele><time>2026-03-26T16:16:41Z</time></trkpt><trkpt lat="44.68805373886628" lon="2.552737704314111"><ele>611.0</ele><time>2026-03-26T16:16:42Z</time></trkpt><trkpt lat="44.68804460142089" lon="2.552597852350586"><ele>611.0</ele><time>2026-03-26T16:16:44Z</time></trkpt><trkpt lat="44.688044359656935" lon="2.552507844003583"><ele>611.0</ele><time>2026-03-26T16:17:13.999Z</time></trkpt><trkpt lat="44.688101024350914" lon="2.552319181087968"><ele>612.0</ele><time>2026-03-26T16:17:15.999Z</time></trkpt><trkpt lat="44.688130000349496" lon="2.5521996426925866"><ele>613.0</ele><time>2026-03-26T16:17:16.999Z</time></trkpt><trkpt lat="44.688146413605054" lon="2.552076109928201"><ele>614.0</ele><time>2026-03-26T16:17:17.999Z</time></trkpt><trkpt lat="44.68815119672902" lon="2.5519562877887707"><ele>615.0</ele><time>2026-03-26T16:17:18.999Z</time></trkpt><trkpt lat="44.68814650727742" lon="2.5518432329620695"><ele>616.0</ele><time>2026-03-26T16:17:19.999Z</time></trkpt><trkpt lat="44.688131560797544" lon="2.5517474075968556"><ele>617.0</ele><time>2026-03-26T16:17:20.999Z</time></trkpt><trkpt lat="44.68811508449225" lon="2.551586484185732"><ele>617.0</ele><time>2026-03-26T16:17:22.999Z</time></trkpt><trkpt lat="44.68810216704484" lon="2.551464604306624"><ele>617.0</ele><time>2026-03-26T16:17:24.999Z</time></trkpt><trkpt lat="44.688024458398395" lon="2.551343020025737"><ele>617.0</ele><time>2026-03-26T16:17:26.999Z</time></trkpt><trkpt lat="44.687966809710026" lon="2.551252413443427"><ele>617.0</ele><time>2026-03-26T16:17:27.999Z</time></trkpt><trkpt lat="44.687901915345996" lon="2.5511463634136775"><ele>617.0</ele><time>2026-03-26T16:17:28.999Z</time></trkpt><trkpt lat="44.68785284350725" lon="2.5510149367139245"><ele>614.25</ele><time>2026-03-26T16:17:29.999Z</time></trkpt><trkpt lat="44.68782860377791" lon="2.5508835592766745"><ele>611.5</ele><time>2026-03-26T16:17:30.999Z</time></trkpt><trkpt lat="44.68781955966147" lon="2.550701747191214"><ele>608.75</ele><time>2026-03-26T16:17:31.999Z</time></trkpt><trkpt lat="44.68780271671037" lon="2.550527678031173"><ele>606.0</ele><time>2026-03-26T16:17:32.999Z</time></trkpt><trkpt lat="44.68777556765807" lon="2.5503871295676452"><ele>611.2</ele><time>2026-03-26T16:17:33.999Z</time></trkpt><trkpt lat="44.68773760662778" lon="2.5502744285195638"><ele>616.4000000000001</ele><time>2026-03-26T16:17:34.999Z</time></trkpt><trkpt lat="44.68767858697053" lon="2.55015518683386"><ele>621.6</ele><time>2026-03-26T16:17:35.999Z</time></trkpt><trkpt lat="44.68765426568299" lon="2.5500109124434496"><ele>626.8000000000001</ele><time>2026-03-26T16:17:36.999Z</time></trkpt><trkpt lat="44.68764319082775" lon="2.549874329357469"><ele>632.0</ele><time>2026-03-26T16:17:37.999Z</time></trkpt><trkpt lat="44.687630558179194" lon="2.549766997990585"><ele>632.0</ele><time>2026-03-26T16:17:38.999Z</time></trkpt><trkpt lat="44.687622526825905" lon="2.5496651590085673"><ele>632.0</ele><time>2026-03-26T16:17:39.999Z</time></trkpt><trkpt lat="44.68764460492672" lon="2.549582183747599"><ele>632.0</ele><time>2026-03-26T16:17:40.999Z</time></trkpt><trkpt lat="44.6876950807205" lon="2.549505557093929"><ele>632.0</ele><time>2026-03-26T16:17:41.999Z</time></trkpt><trkpt lat="44.68772190982363" lon="2.549423466802045"><ele>632.0</ele><time>2026-03-26T16:17:42.999Z</time></trkpt><trkpt lat="44.68779438381557" lon="2.549321765597295"><ele>632.0</ele><time>2026-03-26T16:17:43.999Z</time></trkpt><trkpt lat="44.687917229247866" lon="2.5492086296348853"><ele>626.6</ele><time>2026-03-26T16:17:44.999Z</time></trkpt><trkpt lat="44.688042742950124" lon="2.5490991752560093"><ele>621.2</ele><time>2026-03-26T16:17:45.999Z</time></trkpt><trkpt lat="44.6881740569881" lon="2.549025836601248"><ele>615.8</ele><time>2026-03-26T16:17:46.999Z</time></trkpt><trkpt lat="44.68824044457956" lon="2.548962622233688"><ele>610.4</ele><time>2026-03-26T16:17:47.999Z</time></trkpt><trkpt lat="44.68828162186796" lon="2.5488879857685767"><ele>605.0</ele><time>2026-03-26T16:17:48.999Z</time></trkpt><trkpt lat="44.68829457736683" lon="2.5487899528590074"><ele>604.8</ele><time>2026-03-26T16:17:49.999Z</time></trkpt><trkpt lat="44.688276427485185" lon="2.54869300051124"><ele>604.6</ele><time>2026-03-26T16:17:50.999Z</time></trkpt><trkpt lat="44.68822050963284" lon="2.5486056293011736"><ele>604.4</ele><time>2026-03-26T16:17:51.999Z</time></trkpt><trkpt lat="44.68815340745824" lon="2.548529933142727"><ele>604.2</ele><time>2026-03-26T16:17:52.999Z</time></trkpt><trkpt lat="44.688049138670095" lon="2.5484588924070963"><ele>604.0</ele><time>2026-03-26T16:17:54Z</time></trkpt><trkpt lat="44.68794902374834" lon="2.548354776659319"><ele>604.0</ele><time>2026-03-26T16:17:55Z</time></trkpt><trkpt lat="44.68786795682232" lon="2.548267355297976"><ele>604.0</ele><time>2026-03-26T16:17:56Z</time></trkpt><trkpt lat="44.687798337374765" lon="2.5482335223164005"><ele>604.0</ele><time>2026-03-26T16:17:57Z</time></trkpt><trkpt lat="44.687717713937715" lon="2.548142077838936"><ele>604.0</ele><time>2026-03-26T16:17:58Z</time></trkpt><trkpt lat="44.68767452723483" lon="2.5480669875492903"><ele>604.0</ele><time>2026-03-26T16:17:59Z</time></trkpt><trkpt lat="44.68764326395428" lon="2.547978072479591"><ele>604.0</ele><time>2026-03-26T16:18:00Z</time></trkpt><trkpt lat="44.68761920618414" lon="2.54785963261835"><ele>605.2</ele><time>2026-03-26T16:18:01Z</time></trkpt><trkpt lat="44.687624876157855" lon="2.547725966096491"><ele>606.4</ele><time>2026-03-26T16:18:02Z</time></trkpt><trkpt lat="44.68763942609632" lon="2.5475910080227018"><ele>607.6</ele><time>2026-03-26T16:18:03Z</time></trkpt><trkpt lat="44.68766527597353" lon="2.5475032970540274"><ele>608.8</ele><time>2026-03-26T16:18:04Z</time></trkpt><trkpt lat="44.68771656595758" lon="2.5474154224939487"><ele>610.0</ele><time>2026-03-26T16:18:05Z</time></trkpt><trkpt lat="44.68785263449319" lon="2.5473506231987653"><ele>610.0</ele><time>2026-03-26T16:18:07Z</time></trkpt><trkpt lat="44.68796621553143" lon="2.5473261034773964"><ele>610.0</ele><time>2026-03-26T16:18:08Z</time></trkpt><trkpt lat="44.68807064010883" lon="2.5473174724421193"><ele>610.0</ele><time>2026-03-26T16:18:09Z</time></trkpt><trkpt lat="44.68818026613652" lon="2.54729221681395"><ele>610.0</ele><time>2026-03-26T16:18:10Z</time></trkpt><trkpt lat="44.68830488780805" lon="2.547236864203031"><ele>610.0</ele><time>2026-03-26T16:18:11Z</time></trkpt><trkpt lat="44.688545725731586" lon="2.5471357746318075"><ele>610.0</ele><time>2026-03-26T16:18:12Z</time></trkpt><trkpt lat="44.688753959397445" lon="2.5470583237311013"><ele>611.5</ele><time>2026-03-26T16:18:13Z</time></trkpt><trkpt lat="44.68892336036666" lon="2.5470199211736464"><ele>613.0</ele><time>2026-03-26T16:18:14Z</time></trkpt><trkpt lat="44.68906555653848" lon="2.546993564649653"><ele>614.5</ele><time>2026-03-26T16:18:15Z</time></trkpt><trkpt lat="44.68919044127172" lon="2.546950987144681"><ele>616.0</ele><time>2026-03-26T16:18:16Z</time></trkpt><trkpt lat="44.689289861161626" lon="2.546874189614261"><ele>616.0</ele><time>2026-03-26T16:18:17Z</time></trkpt><trkpt lat="44.68937022735274" lon="2.5467845886429346"><ele>616.0</ele><time>2026-03-26T16:18:18Z</time></trkpt><trkpt lat="44.68944754781902" lon="2.5466792905335374"><ele>616.0</ele><time>2026-03-26T16:18:19Z</time></trkpt><trkpt lat="44.689536200639985" lon="2.546559608754312"><ele>616.0</ele><time>2026-03-26T16:18:20Z</time></trkpt><trkpt lat="44.68962527206381" lon="2.5464478568016427"><ele>616.4</ele><time>2026-03-26T16:18:21Z</time></trkpt><trkpt lat="44.689682562926244" lon="2.546348677476467"><ele>616.8</ele><time>2026-03-26T16:18:22Z</time></trkpt><trkpt lat="44.68971580487025" lon="2.546144983956762"><ele>617.1999999999999</ele><time>2026-03-26T16:18:24Z</time></trkpt><trkpt lat="44.689736572574326" lon="2.5460287021612036"><ele>617.6</ele><time>2026-03-26T16:18:25Z</time></trkpt><trkpt lat="44.689788982203034" lon="2.545965002244065"><ele>618.0</ele><time>2026-03-26T16:18:26Z</time></trkpt><trkpt lat="44.68994223188696" lon="2.546020145108472"><ele>618.0</ele><time>2026-03-26T16:18:28Z</time></trkpt><trkpt lat="44.690034237475246" lon="2.5460935766116988"><ele>618.0</ele><time>2026-03-26T16:18:29Z</time></trkpt><trkpt lat="44.69011946345021" lon="2.5461962151538873"><ele>618.0</ele><time>2026-03-26T16:18:30Z</time></trkpt><trkpt lat="44.69023289792147" lon="2.5463702242431197"><ele>618.0</ele><time>2026-03-26T16:18:31Z</time></trkpt><trkpt lat="44.69035088545379" lon="2.5464459420667334"><ele>611.1999999999999</ele><time>2026-03-26T16:18:32Z</time></trkpt><trkpt lat="44.69042216420228" lon="2.546459740680189"><ele>604.4</ele><time>2026-03-26T16:18:33Z</time></trkpt><trkpt lat="44.690487590001204" lon="2.5464470419535923"><ele>597.5999999999999</ele><time>2026-03-26T16:18:34Z</time></trkpt><trkpt lat="44.69055603168546" lon="2.5464207656198363"><ele>590.8</ele><time>2026-03-26T16:18:35Z</time></trkpt><trkpt lat="44.69065392436383" lon="2.546380538726089"><ele>584.0</ele><time>2026-03-26T16:18:36Z</time></trkpt><trkpt lat="44.69079433290259" lon="2.546338936663835"><ele>584.0</ele><time>2026-03-26T16:18:37Z</time></trkpt><trkpt lat="44.69098563573967" lon="2.546292101291883"><ele>584.0</ele><time>2026-03-26T16:18:38Z</time></trkpt><trkpt lat="44.69112195853041" lon="2.54625840066025"><ele>584.0</ele><time>2026-03-26T16:18:39Z</time></trkpt><trkpt lat="44.691263142621466" lon="2.5462169026458463"><ele>586.25</ele><time>2026-03-26T16:18:41Z</time></trkpt><trkpt lat="44.69136192093722" lon="2.546171528013972"><ele>588.5</ele><time>2026-03-26T16:18:42Z</time></trkpt><trkpt lat="44.69145667551842" lon="2.5461072041859896"><ele>590.75</ele><time>2026-03-26T16:18:43Z</time></trkpt><trkpt lat="44.691559593942884" lon="2.5460120823577976"><ele>593.0</ele><time>2026-03-26T16:18:44Z</time></trkpt><trkpt lat="44.69165932292925" lon="2.5458803282342246"><ele>593.0</ele><time>2026-03-26T16:18:45Z</time></trkpt><trkpt lat="44.69173889853266" lon="2.545728141978774"><ele>593.0</ele><time>2026-03-26T16:18:46Z</time></trkpt><trkpt lat="44.69179449133678" lon="2.5455830937956896"><ele>593.0</ele><time>2026-03-26T16:18:47Z</time></trkpt><trkpt lat="44.691820466205584" lon="2.545474411746029"><ele>593.0</ele><time>2026-03-26T16:18:48Z</time></trkpt><trkpt lat="44.69182103854761" lon="2.545366872599007"><ele>593.0</ele><time>2026-03-26T16:18:49Z</time></trkpt><trkpt lat="44.69180310767208" lon="2.5452318135090715"><ele>594.0</ele><time>2026-03-26T16:18:50Z</time></trkpt><trkpt lat="44.69177072512216" lon="2.5450776140172042"><ele>595.0</ele><time>2026-03-26T16:18:51Z</time></trkpt><trkpt lat="44.69172029194786" lon="2.5449081805947205"><ele>596.0</ele><time>2026-03-26T16:18:52Z</time></trkpt><trkpt lat="44.691678273892215" lon="2.544714216037861"><ele>597.0</ele><time>2026-03-26T16:18:53Z</time></trkpt><trkpt lat="44.69163938295464" lon="2.5445064370415844"><ele>597.0</ele><time>2026-03-26T16:18:54Z</time></trkpt><trkpt lat="44.69161393878837" lon="2.544335692002771"><ele>597.0</ele><time>2026-03-26T16:18:55Z</time></trkpt><trkpt lat="44.69160303355815" lon="2.5442014614256037"><ele>597.0</ele><time>2026-03-26T16:18:56Z</time></trkpt><trkpt lat="44.691594422567846" lon="2.544059033131925"><ele>597.0</ele><time>2026-03-26T16:18:57Z</time></trkpt><trkpt lat="44.691595827846974" lon="2.543914035173128"><ele>597.0</ele><time>2026-03-26T16:18:57.999Z</time></trkpt><trkpt lat="44.69162924324047" lon="2.5437496902119325"><ele>599.6666666666666</ele><time>2026-03-26T16:18:58.999Z</time></trkpt><trkpt lat="44.691702835749304" lon="2.5435677806619585"><ele>602.3333333333333</ele><time>2026-03-26T16:18:59.999Z</time></trkpt><trkpt lat="44.69180945942419" lon="2.5433793666731352"><ele>605.0</ele><time>2026-03-26T16:19:00.999Z</time></trkpt><trkpt lat="44.69187924335025" lon="2.5431966784696574"><ele>599.75</ele><time>2026-03-26T16:19:01.999Z</time></trkpt><trkpt lat="44.6919707333941" lon="2.5430529970570186"><ele>594.5</ele><time>2026-03-26T16:19:02.999Z</time></trkpt><trkpt lat="44.69211136310899" lon="2.542971974609702"><ele>589.25</ele><time>2026-03-26T16:19:03.999Z</time></trkpt><trkpt lat="44.69219057494865" lon="2.5428087515494315"><ele>584.0</ele><time>2026-03-26T16:19:04.999Z</time></trkpt><trkpt lat="44.69227114227465" lon="2.5426421954774825"><ele>584.0</ele><time>2026-03-26T16:19:05.999Z</time></trkpt><trkpt lat="44.69235331552863" lon="2.5425114851993458"><ele>584.0</ele><time>2026-03-26T16:19:06.999Z</time></trkpt><trkpt lat="44.69242742247919" lon="2.5423864182606093"><ele>584.0</ele><time>2026-03-26T16:19:07.999Z</time></trkpt><trkpt lat="44.69249375466028" lon="2.5422326019291406"><ele>584.0</ele><time>2026-03-26T16:19:08.999Z</time></trkpt><trkpt lat="44.69256863081855" lon="2.542034760511188"><ele>581.75</ele><time>2026-03-26T16:19:09.999Z</time></trkpt><trkpt lat="44.692647826370575" lon="2.541840635468067"><ele>579.5</ele><time>2026-03-26T16:19:10.999Z</time></trkpt><trkpt lat="44.69271612060198" lon="2.5416798728142322"><ele>577.25</ele><time>2026-03-26T16:19:11.999Z</time></trkpt><trkpt lat="44.69277617482429" lon="2.5415429683710196"><ele>575.0</ele><time>2026-03-26T16:19:12.999Z</time></trkpt><trkpt lat="44.692833325969985" lon="2.541417136619451"><ele>575.0</ele><time>2026-03-26T16:19:13.999Z</time></trkpt><trkpt lat="44.692892207881975" lon="2.541286430683662"><ele>575.0</ele><time>2026-03-26T16:19:14.999Z</time></trkpt><trkpt lat="44.69295717380933" lon="2.541123492260416"><ele>575.0</ele><time>2026-03-26T16:19:15.999Z</time></trkpt><trkpt lat="44.692994468851275" lon="2.540920508826282"><ele>575.0</ele><time>2026-03-26T16:19:16.999Z</time></trkpt><trkpt lat="44.693060422133534" lon="2.5407440986653387"><ele>577.4</ele><time>2026-03-26T16:19:17.999Z</time></trkpt><trkpt lat="44.6931286764005" lon="2.5406201624637483"><ele>579.8</ele><time>2026-03-26T16:19:18.999Z</time></trkpt><trkpt lat="44.693197736699986" lon="2.540506745415985"><ele>582.2</ele><time>2026-03-26T16:19:19.999Z</time></trkpt><trkpt lat="44.69326994502293" lon="2.5403924265101896"><ele>584.6</ele><time>2026-03-26T16:19:20.999Z</time></trkpt><trkpt lat="44.69335603772605" lon="2.5402747136487878"><ele>587.0</ele><time>2026-03-26T16:19:21.999Z</time></trkpt><trkpt lat="44.69344944853517" lon="2.5401719505687796"><ele>588.2</ele><time>2026-03-26T16:19:22.999Z</time></trkpt><trkpt lat="44.69356063182287" lon="2.5400430500520033"><ele>589.4000000000001</ele><time>2026-03-26T16:19:23.999Z</time></trkpt><trkpt lat="44.693661082245924" lon="2.5399272218210784"><ele>590.5999999999999</ele><time>2026-03-26T16:19:24.999Z</time></trkpt><trkpt lat="44.69372105158785" lon="2.5398392849162073"><ele>591.8</ele><time>2026-03-26T16:19:25.999Z</time></trkpt><trkpt lat="44.69376035805485" lon="2.539760224813631"><ele>593.0</ele><time>2026-03-26T16:19:26.999Z</time></trkpt><trkpt lat="44.69380004239692" lon="2.5396691693357676"><ele>592.6</ele><time>2026-03-26T16:19:28.999Z</time></trkpt><trkpt lat="44.69371727567189" lon="2.539619635910624"><ele>592.1999999999999</ele><time>2026-03-26T16:19:36.999Z</time></trkpt><trkpt lat="44.69364903915844" lon="2.539591102314764"><ele>591.8</ele><time>2026-03-26T16:19:37.999Z</time></trkpt><trkpt lat="44.69355729692698" lon="2.5395449682811457"><ele>591.4</ele><time>2026-03-26T16:19:38.999Z</time></trkpt><trkpt lat="44.69345848103664" lon="2.5394720338401555"><ele>591.0</ele><time>2026-03-26T16:19:39.999Z</time></trkpt><trkpt lat="44.69335344431285" lon="2.539398701635304"><ele>591.0</ele><time>2026-03-26T16:19:40.999Z</time></trkpt><trkpt lat="44.6932501049754" lon="2.5393378636614283"><ele>591.0</ele><time>2026-03-26T16:19:41.999Z</time></trkpt><trkpt lat="44.693126245029795" lon="2.539302653550652"><ele>591.0</ele><time>2026-03-26T16:19:42.999Z</time></trkpt><trkpt lat="44.69298590446671" lon="2.5392751935334985"><ele>591.0</ele><time>2026-03-26T16:19:43.999Z</time></trkpt><trkpt lat="44.69288243122" lon="2.5392530447102963"><ele>591.0</ele><time>2026-03-26T16:19:44.999Z</time></trkpt><trkpt lat="44.69282285945375" lon="2.5392200436817207"><ele>591.0</ele><time>2026-03-26T16:19:45.999Z</time></trkpt><trkpt lat="44.6927739323016" lon="2.539156018700531"><ele>591.0</ele><time>2026-03-26T16:19:46.999Z</time></trkpt><trkpt lat="44.69277676056151" lon="2.539064202389993"><ele>591.0</ele><time>2026-03-26T16:19:47.999Z</time></trkpt><trkpt lat="44.692885793850344" lon="2.538959241505124"><ele>591.0</ele><time>2026-03-26T16:19:49.999Z</time></trkpt><trkpt lat="44.69297731571377" lon="2.5388663817823676"><ele>591.0</ele><time>2026-03-26T16:19:50.999Z</time></trkpt><trkpt lat="44.69308425048633" lon="2.5387668763530065"><ele>592.2</ele><time>2026-03-26T16:19:51.999Z</time></trkpt><trkpt lat="44.693171734860634" lon="2.538668715960472"><ele>593.4000000000001</ele><time>2026-03-26T16:19:52.999Z</time></trkpt><trkpt lat="44.69324901980479" lon="2.538585912318717"><ele>594.6</ele><time>2026-03-26T16:19:53.999Z</time></trkpt><trkpt lat="44.693279329702065" lon="2.538411971256971"><ele>595.8000000000001</ele><time>2026-03-26T16:19:55.999Z</time></trkpt><trkpt lat="44.69326934556598" lon="2.538302361723612"><ele>597.0</ele><time>2026-03-26T16:19:56.999Z</time></trkpt><trkpt lat="44.69325835343685" lon="2.5381777963496575"><ele>597.0</ele><time>2026-03-26T16:19:57.999Z</time></trkpt><trkpt lat="44.693256115347296" lon="2.5380255865142933"><ele>597.0</ele><time>2026-03-26T16:19:58.999Z</time></trkpt><trkpt lat="44.69325819178943" lon="2.5378425626671364"><ele>597.0</ele><time>2026-03-26T16:20:00Z</time></trkpt><trkpt lat="44.69326240459972" lon="2.5376527588796876"><ele>597.0</ele><time>2026-03-26T16:20:01Z</time></trkpt><trkpt lat="44.69326788692603" lon="2.537446500602206"><ele>598.5</ele><time>2026-03-26T16:20:02Z</time></trkpt><trkpt lat="44.693277843472764" lon="2.537256640219338"><ele>600.0</ele><time>2026-03-26T16:20:03Z</time></trkpt><trkpt lat="44.69324139739673" lon="2.537071490788483"><ele>601.5</ele><time>2026-03-26T16:20:04Z</time></trkpt><trkpt lat="44.693274299890845" lon="2.5369149769090895"><ele>603.0</ele><time>2026-03-26T16:20:05Z</time></trkpt><trkpt lat="44.69328234106049" lon="2.536737846994419"><ele>603.0</ele><time>2026-03-26T16:20:06Z</time></trkpt><trkpt lat="44.693274949584584" lon="2.536554591411283"><ele>603.0</ele><time>2026-03-26T16:20:07Z</time></trkpt><trkpt lat="44.69323733664526" lon="2.5363659602331325"><ele>603.0</ele><time>2026-03-26T16:20:08Z</time></trkpt><trkpt lat="44.69320165550347" lon="2.536185834599366"><ele>603.0</ele><time>2026-03-26T16:20:09Z</time></trkpt><trkpt lat="44.6931569715566" lon="2.536009006451416"><ele>603.0</ele><time>2026-03-26T16:20:10Z</time></trkpt><trkpt lat="44.693099582241175" lon="2.5358430877272866"><ele>603.0</ele><time>2026-03-26T16:20:11Z</time></trkpt><trkpt lat="44.69302220526793" lon="2.535720324947613"><ele>603.0</ele><time>2026-03-26T16:20:12Z</time></trkpt><trkpt lat="44.69297285737766" lon="2.535606929322266"><ele>603.0</ele><time>2026-03-26T16:20:13Z</time></trkpt><trkpt lat="44.692934577685264" lon="2.535477444456617"><ele>603.0</ele><time>2026-03-26T16:20:14Z</time></trkpt><trkpt lat="44.69296352327779" lon="2.5353216632486544"><ele>603.0</ele><time>2026-03-26T16:20:15Z</time></trkpt><trkpt lat="44.69301393879885" lon="2.5351922323324625"><ele>603.0</ele><time>2026-03-26T16:20:16Z</time></trkpt><trkpt lat="44.693096348207554" lon="2.5350744243137617"><ele>603.0</ele><time>2026-03-26T16:20:17Z</time></trkpt><trkpt lat="44.693172408494924" lon="2.534951797683207"><ele>603.0</ele><time>2026-03-26T16:20:18Z</time></trkpt><trkpt lat="44.69320996493372" lon="2.5348345492393913"><ele>603.0</ele><time>2026-03-26T16:20:19Z</time></trkpt><trkpt lat="44.69319870625187" lon="2.534718561726625"><ele>603.0</ele><time>2026-03-26T16:20:20Z</time></trkpt><trkpt lat="44.69315667730422" lon="2.534591539941134"><ele>603.0</ele><time>2026-03-26T16:20:21Z</time></trkpt><trkpt lat="44.69309618391164" lon="2.5344925774410267"><ele>603.0</ele><time>2026-03-26T16:20:22Z</time></trkpt><trkpt lat="44.69301594457193" lon="2.534415659034962"><ele>603.0</ele><time>2026-03-26T16:20:23Z</time></trkpt><trkpt lat="44.692934731053406" lon="2.5343389889965597"><ele>603.0</ele><time>2026-03-26T16:20:24Z</time></trkpt><trkpt lat="44.69284624587328" lon="2.5342793000137043"><ele>609.25</ele><time>2026-03-26T16:20:25Z</time></trkpt><trkpt lat="44.692712128209955" lon="2.534238811101319"><ele>615.5</ele><time>2026-03-26T16:20:26Z</time></trkpt><trkpt lat="44.69257676035779" lon="2.534195603630293"><ele>621.75</ele><time>2026-03-26T16:20:27Z</time></trkpt><trkpt lat="44.69243294115671" lon="2.5341370487706976"><ele>628.0</ele><time>2026-03-26T16:20:28Z</time></trkpt><trkpt lat="44.69234440968578" lon="2.5340965887248323"><ele>628.0</ele><time>2026-03-26T16:20:29Z</time></trkpt><trkpt lat="44.6922848998852" lon="2.5340435734408895"><ele>628.0</ele><time>2026-03-26T16:20:30Z</time></trkpt><trkpt lat="44.692228965323956" lon="2.5339489641649746"><ele>628.0</ele><time>2026-03-26T16:20:31Z</time></trkpt><trkpt lat="44.692184267144974" lon="2.533802803053166"><ele>628.0</ele><time>2026-03-26T16:20:33Z</time></trkpt><trkpt lat="44.69218204175127" lon="2.5336939129480713"><ele>628.0</ele><time>2026-03-26T16:20:34Z</time></trkpt><trkpt lat="44.692203863825085" lon="2.5335269785307193"><ele>625.0</ele><time>2026-03-26T16:20:35Z</time></trkpt><trkpt lat="44.69226358929662" lon="2.5333027231679757"><ele>622.0</ele><time>2026-03-26T16:20:36Z</time></trkpt><trkpt lat="44.69229975797804" lon="2.5331067261028273"><ele>619.0</ele><time>2026-03-26T16:20:37Z</time></trkpt><trkpt lat="44.69233972533795" lon="2.532915831391547"><ele>617.4</ele><time>2026-03-26T16:20:38Z</time></trkpt><trkpt lat="44.69236716953396" lon="2.532739737210782"><ele>615.8</ele><time>2026-03-26T16:20:39Z</time></trkpt><trkpt lat="44.69238186708963" lon="2.532582911144587"><ele>614.2</ele><time>2026-03-26T16:20:40Z</time></trkpt><trkpt lat="44.69237936514031" lon="2.5324604383367393"><ele>612.6</ele><time>2026-03-26T16:20:41Z</time></trkpt><trkpt lat="44.692350133962194" lon="2.5323487207591286"><ele>611.0</ele><time>2026-03-26T16:20:42Z</time></trkpt><trkpt lat="44.69230135773504" lon="2.5322475539153184"><ele>611.0</ele><time>2026-03-26T16:20:43Z</time></trkpt><trkpt lat="44.692207506672645" lon="2.5321061487622325"><ele>611.0</ele><time>2026-03-26T16:20:44Z</time></trkpt><trkpt lat="44.69210829338974" lon="2.531952382643196"><ele>611.0</ele><time>2026-03-26T16:20:45Z</time></trkpt><trkpt lat="44.69203219847497" lon="2.531841550548979"><ele>611.0</ele><time>2026-03-26T16:20:46Z</time></trkpt><trkpt lat="44.69194893154486" lon="2.5317449367948806"><ele>613.0</ele><time>2026-03-26T16:20:47Z</time></trkpt><trkpt lat="44.69186071143612" lon="2.531658394590122"><ele>615.0</ele><time>2026-03-26T16:20:48Z</time></trkpt><trkpt lat="44.691783965562635" lon="2.5315870815427974"><ele>617.0</ele><time>2026-03-26T16:20:49Z</time></trkpt><trkpt lat="44.69171010213198" lon="2.5315245024808295"><ele>619.0</ele><time>2026-03-26T16:20:50Z</time></trkpt><trkpt lat="44.691622498244264" lon="2.531469521180649"><ele>621.0</ele><time>2026-03-26T16:20:51Z</time></trkpt><trkpt lat="44.69150927367758" lon="2.5314348183939797"><ele>621.0</ele><time>2026-03-26T16:20:52Z</time></trkpt><trkpt lat="44.69139971963011" lon="2.5314216565132566"><ele>621.0</ele><time>2026-03-26T16:20:53Z</time></trkpt><trkpt lat="44.69127347897773" lon="2.531398093020057"><ele>621.0</ele><time>2026-03-26T16:20:54Z</time></trkpt><trkpt lat="44.69114794760982" lon="2.53137261266152"><ele>621.0</ele><time>2026-03-26T16:20:55Z</time></trkpt><trkpt lat="44.691029341544244" lon="2.5313386286560737"><ele>624.25</ele><time>2026-03-26T16:20:56Z</time></trkpt><trkpt lat="44.6909241149173" lon="2.531287142361057"><ele>627.5</ele><time>2026-03-26T16:20:57Z</time></trkpt><trkpt lat="44.69082902179945" lon="2.5312049185924486"><ele>630.75</ele><time>2026-03-26T16:20:58Z</time></trkpt><trkpt lat="44.690724107908196" lon="2.53111574192846"><ele>634.0</ele><time>2026-03-26T16:20:59Z</time></trkpt><trkpt lat="44.69063620246057" lon="2.531025854236807"><ele>628.8333333333334</ele><time>2026-03-26T16:21:00Z</time></trkpt><trkpt lat="44.690557341012074" lon="2.530975888277364"><ele>623.6666666666667</ele><time>2026-03-26T16:21:01Z</time></trkpt><trkpt lat="44.69049288820024" lon="2.5309474896446638"><ele>618.5</ele><time>2026-03-26T16:21:02Z</time></trkpt><trkpt lat="44.690412687542484" lon="2.5309517641245214"><ele>613.3333333333334</ele><time>2026-03-26T16:21:03Z</time></trkpt><trkpt lat="44.690321505955694" lon="2.5310040293426552"><ele>608.1666666666666</ele><time>2026-03-26T16:21:04Z</time></trkpt><trkpt lat="44.690242754006086" lon="2.531082219449328"><ele>603.0</ele><time>2026-03-26T16:21:04.999Z</time></trkpt><trkpt lat="44.69015086575316" lon="2.53116263384836"><ele>611.3333333333334</ele><time>2026-03-26T16:21:05.999Z</time></trkpt><trkpt lat="44.69005225294616" lon="2.5312917847762737"><ele>619.6666666666667</ele><time>2026-03-26T16:21:06.999Z</time></trkpt><trkpt lat="44.68989825106899" lon="2.531428118093257"><ele>628.0</ele><time>2026-03-26T16:21:07.999Z</time></trkpt><trkpt lat="44.689754243572715" lon="2.531535603431813"><ele>628.0</ele><time>2026-03-26T16:21:08.999Z</time></trkpt><trkpt lat="44.689616451804596" lon="2.5315704065576066"><ele>628.0</ele><time>2026-03-26T16:21:09.999Z</time></trkpt><trkpt lat="44.68949624920381" lon="2.5315656035882452"><ele>628.0</ele><time>2026-03-26T16:21:10.999Z</time></trkpt><trkpt lat="44.68939849541881" lon="2.5315506879479504"><ele>628.0</ele><time>2026-03-26T16:21:11.999Z</time></trkpt><trkpt lat="44.689322255626884" lon="2.531559529772226"><ele>628.0</ele><time>2026-03-26T16:21:12.999Z</time></trkpt><trkpt lat="44.68924348550938" lon="2.5315945743914643"><ele>630.25</ele><time>2026-03-26T16:21:13.999Z</time></trkpt><trkpt lat="44.68917622879727" lon="2.531664156700482"><ele>632.5</ele><time>2026-03-26T16:21:14.999Z</time></trkpt><trkpt lat="44.68909808530982" lon="2.5318016107947754"><ele>634.75</ele><time>2026-03-26T16:21:15.999Z</time></trkpt><trkpt lat="44.68896636206505" lon="2.5319434366453324"><ele>637.0</ele><time>2026-03-26T16:21:16.999Z</time></trkpt><trkpt lat="44.68886211982975" lon="2.532062916274444"><ele>637.0</ele><time>2026-03-26T16:21:17.999Z</time></trkpt><trkpt lat="44.68873353298116" lon="2.532182897664286"><ele>637.0</ele><time>2026-03-26T16:21:18.999Z</time></trkpt><trkpt lat="44.688600803373774" lon="2.532273006732116"><ele>637.0</ele><time>2026-03-26T16:21:19.999Z</time></trkpt><trkpt lat="44.68847930102438" lon="2.5323201212876816"><ele>637.0</ele><time>2026-03-26T16:21:20.999Z</time></trkpt><trkpt lat="44.6883550781889" lon="2.532348839795836"><ele>634.1666666666667</ele><time>2026-03-26T16:21:21.999Z</time></trkpt><trkpt lat="44.688261692605415" lon="2.532365637001391"><ele>631.3333333333334</ele><time>2026-03-26T16:21:22.999Z</time></trkpt><trkpt lat="44.68818832165973" lon="2.53232597342772"><ele>628.5</ele><time>2026-03-26T16:21:23.999Z</time></trkpt><trkpt lat="44.6881459835488" lon="2.5322123272304373"><ele>625.6666666666666</ele><time>2026-03-26T16:21:24.999Z</time></trkpt><trkpt lat="44.688123489978295" lon="2.532115241468692"><ele>622.8333333333333</ele><time>2026-03-26T16:21:25.999Z</time></trkpt><trkpt lat="44.68811344466476" lon="2.532007718741683"><ele>620.0</ele><time>2026-03-26T16:21:26.999Z</time></trkpt><trkpt lat="44.688115113306274" lon="2.53190046160562"><ele>619.2</ele><time>2026-03-26T16:21:27.999Z</time></trkpt><trkpt lat="44.68814280268027" lon="2.531793888889201"><ele>618.4</ele><time>2026-03-26T16:21:28.999Z</time></trkpt><trkpt lat="44.68818332530182" lon="2.5316902611769807"><ele>617.6</ele><time>2026-03-26T16:21:29.999Z</time></trkpt><trkpt lat="44.688303184700445" lon="2.5315760576999327"><ele>616.8</ele><time>2026-03-26T16:21:30.999Z</time></trkpt><trkpt lat="44.688394814629476" lon="2.531460654275405"><ele>616.0</ele><time>2026-03-26T16:21:31.999Z</time></trkpt><trkpt lat="44.68846777121322" lon="2.5313368806096395"><ele>614.0</ele><time>2026-03-26T16:21:32.999Z</time></trkpt><trkpt lat="44.68852192231625" lon="2.5311845334757743"><ele>612.0</ele><time>2026-03-26T16:21:33.999Z</time></trkpt><trkpt lat="44.68858290575125" lon="2.530968658704979"><ele>610.0</ele><time>2026-03-26T16:21:34.999Z</time></trkpt><trkpt lat="44.688667826063195" lon="2.5307089755311916"><ele>610.0</ele><time>2026-03-26T16:21:35.999Z</time></trkpt><trkpt lat="44.68874177082036" lon="2.530481985817203"><ele>610.0</ele><time>2026-03-26T16:21:36.999Z</time></trkpt><trkpt lat="44.68873082841027" lon="2.530181471024908"><ele>610.0</ele><time>2026-03-26T16:21:37.999Z</time></trkpt><trkpt lat="44.68888393494983" lon="2.5300792818724473"><ele>613.25</ele><time>2026-03-26T16:21:38.999Z</time></trkpt><trkpt lat="44.688977801473946" lon="2.529939525440068"><ele>616.5</ele><time>2026-03-26T16:21:39.999Z</time></trkpt><trkpt lat="44.68908398341476" lon="2.5298720528891727"><ele>619.75</ele><time>2026-03-26T16:21:40.999Z</time></trkpt><trkpt lat="44.68920355286236" lon="2.529825209804457"><ele>623.0</ele><time>2026-03-26T16:21:41.999Z</time></trkpt><trkpt lat="44.68929074609641" lon="2.5297103887552397"><ele>623.0</ele><time>2026-03-26T16:21:42.999Z</time></trkpt><trkpt lat="44.68932606173863" lon="2.529582227633437"><ele>623.0</ele><time>2026-03-26T16:21:43.999Z</time></trkpt><trkpt lat="44.68935345136032" lon="2.5294128557942335"><ele>623.0</ele><time>2026-03-26T16:21:44.999Z</time></trkpt><trkpt lat="44.689387762257276" lon="2.5292281683708424"><ele>623.0</ele><time>2026-03-26T16:21:45.999Z</time></trkpt><trkpt lat="44.68944337325039" lon="2.529022185871601"><ele>620.75</ele><time>2026-03-26T16:21:46.999Z</time></trkpt><trkpt lat="44.68950507041817" lon="2.5288059461891965"><ele>618.5</ele><time>2026-03-26T16:21:47.999Z</time></trkpt><trkpt lat="44.68956006828814" lon="2.528607554070725"><ele>616.25</ele><time>2026-03-26T16:21:48.999Z</time></trkpt><trkpt lat="44.68961551228524" lon="2.528485010931732"><ele>614.0</ele><time>2026-03-26T16:21:49.999Z</time></trkpt><trkpt lat="44.68973039460292" lon="2.5284096603111683"><ele>615.4</ele><time>2026-03-26T16:21:51.999Z</time></trkpt><trkpt lat="44.68980186315887" lon="2.528394069897748"><ele>616.8</ele><time>2026-03-26T16:21:52.999Z</time></trkpt><trkpt lat="44.68993178679965" lon="2.5283802981288637"><ele>618.2</ele><time>2026-03-26T16:21:53.999Z</time></trkpt><trkpt lat="44.69004495779146" lon="2.5283280326330266"><ele>619.6</ele><time>2026-03-26T16:21:54.999Z</time></trkpt><trkpt lat="44.69015167603161" lon="2.528259391106058"><ele>621.0</ele><time>2026-03-26T16:21:55.999Z</time></trkpt><trkpt lat="44.69028219901563" lon="2.5281623265981428"><ele>621.0</ele><time>2026-03-26T16:21:56.999Z</time></trkpt><trkpt lat="44.69041550683921" lon="2.528069691837827"><ele>621.0</ele><time>2026-03-26T16:21:57.999Z</time></trkpt><trkpt lat="44.690552030048806" lon="2.527952162613461"><ele>621.0</ele><time>2026-03-26T16:21:58.999Z</time></trkpt><trkpt lat="44.69068169458625" lon="2.5278362711364117"><ele>626.2</ele><time>2026-03-26T16:21:59.999Z</time></trkpt><trkpt lat="44.69077753721458" lon="2.527748906698894"><ele>631.4000000000001</ele><time>2026-03-26T16:22:00.999Z</time></trkpt><trkpt lat="44.69085151716281" lon="2.527667726167121"><ele>636.6</ele><time>2026-03-26T16:22:01.999Z</time></trkpt><trkpt lat="44.69091565848633" lon="2.5276119435545974"><ele>641.8000000000001</ele><time>2026-03-26T16:22:02.999Z</time></trkpt><trkpt lat="44.69098979976394" lon="2.527557078988544"><ele>647.0</ele><time>2026-03-26T16:22:03.999Z</time></trkpt><trkpt lat="44.691068650920116" lon="2.5274756258757627"><ele>643.8000000000001</ele><time>2026-03-26T16:22:05Z</time></trkpt><trkpt lat="44.691143740770194" lon="2.527363408045074"><ele>640.6</ele><time>2026-03-26T16:22:06Z</time></trkpt><trkpt lat="44.6912056115876" lon="2.5272206799481824"><ele>637.4000000000001</ele><time>2026-03-26T16:22:07Z</time></trkpt><trkpt lat="44.69125676986808" lon="2.527072280683097"><ele>634.2</ele><time>2026-03-26T16:22:08Z</time></trkpt><trkpt lat="44.69127129399076" lon="2.5269638460241994"><ele>631.0</ele><time>2026-03-26T16:22:09Z</time></trkpt><trkpt lat="44.69125546657094" lon="2.526868755911622"><ele>631.0</ele><time>2026-03-26T16:22:10Z</time></trkpt><trkpt lat="44.69120751205191" lon="2.5267354291513398"><ele>631.0</ele><time>2026-03-26T16:22:11Z</time></trkpt><trkpt lat="44.69116310006088" lon="2.5265728959500624"><ele>631.0</ele><time>2026-03-26T16:22:12Z</time></trkpt><trkpt lat="44.69111171067771" lon="2.5263779073846324"><ele>631.0</ele><time>2026-03-26T16:22:13Z</time></trkpt><trkpt lat="44.691069226293514" lon="2.5261385877271714"><ele>640.25</ele><time>2026-03-26T16:22:14Z</time></trkpt><trkpt lat="44.69104314101584" lon="2.525890928601351"><ele>649.5</ele><time>2026-03-26T16:22:15Z</time></trkpt><trkpt lat="44.69104589258697" lon="2.5256793116139296"><ele>658.75</ele><time>2026-03-26T16:22:16Z</time></trkpt><trkpt lat="44.69106186000556" lon="2.525524239533158"><ele>668.0</ele><time>2026-03-26T16:22:17Z</time></trkpt><trkpt lat="44.69104181369951" lon="2.525385808530925"><ele>668.0</ele><time>2026-03-26T16:22:18Z</time></trkpt><trkpt lat="44.690974547392116" lon="2.525240511895934"><ele>668.0</ele><time>2026-03-26T16:22:19Z</time></trkpt><trkpt lat="44.690887992039514" lon="2.525065660387422"><ele>668.0</ele><time>2026-03-26T16:22:20Z</time></trkpt><trkpt lat="44.69078556623354" lon="2.52485847010963"><ele>668.0</ele><time>2026-03-26T16:22:21Z</time></trkpt><trkpt lat="44.69072147390378" lon="2.5246680372897363"><ele>668.0</ele><time>2026-03-26T16:22:22Z</time></trkpt><trkpt lat="44.69063675469038" lon="2.524531455637391"><ele>668.0</ele><time>2026-03-26T16:22:23Z</time></trkpt><trkpt lat="44.690535919531804" lon="2.524404590588358"><ele>668.0</ele><time>2026-03-26T16:22:24Z</time></trkpt><trkpt lat="44.690426936021794" lon="2.5243012014288606"><ele>670.25</ele><time>2026-03-26T16:22:25Z</time></trkpt><trkpt lat="44.69031481531451" lon="2.524226995149624"><ele>672.5</ele><time>2026-03-26T16:22:25.999Z</time></trkpt><trkpt lat="44.69021706807807" lon="2.524188887333423"><ele>674.75</ele><time>2026-03-26T16:22:26.999Z</time></trkpt><trkpt lat="44.69009518428203" lon="2.5241503956503366"><ele>677.0</ele><time>2026-03-26T16:22:27.999Z</time></trkpt><trkpt lat="44.689987238219636" lon="2.524162275808959"><ele>677.0</ele><time>2026-03-26T16:22:28.999Z</time></trkpt><trkpt lat="44.68986608221118" lon="2.5241885540088593"><ele>677.0</ele><time>2026-03-26T16:22:29.999Z</time></trkpt><trkpt lat="44.689738723986395" lon="2.5242262979512757"><ele>677.0</ele><time>2026-03-26T16:22:30.999Z</time></trkpt><trkpt lat="44.689612009229116" lon="2.5242676333790754"><ele>677.0</ele><time>2026-03-26T16:22:31.999Z</time></trkpt><trkpt lat="44.68943723347634" lon="2.5243537680800117"><ele>680.0</ele><time>2026-03-26T16:22:32.999Z</time></trkpt><trkpt lat="44.68928705615005" lon="2.5244568674719168"><ele>683.0</ele><time>2026-03-26T16:22:33.999Z</time></trkpt><trkpt lat="44.68913728783178" lon="2.5245017792079123"><ele>686.0</ele><time>2026-03-26T16:22:34.999Z</time></trkpt><trkpt lat="44.68900204087233" lon="2.5245227640584975"><ele>686.0</ele><time>2026-03-26T16:22:35.999Z</time></trkpt><trkpt lat="44.68887158848995" lon="2.5245135003145696"><ele>686.0</ele><time>2026-03-26T16:22:36.999Z</time></trkpt><trkpt lat="44.68875922009628" lon="2.524489437241535"><ele>686.0</ele><time>2026-03-26T16:22:37.999Z</time></trkpt><trkpt lat="44.688667024561546" lon="2.5244610517031463"><ele>686.0</ele><time>2026-03-26T16:22:38.999Z</time></trkpt><trkpt lat="44.688548307604506" lon="2.5243518053127483"><ele>689.0</ele><time>2026-03-26T16:22:39.999Z</time></trkpt><trkpt lat="44.6885157116832" lon="2.524253834290792"><ele>692.0</ele><time>2026-03-26T16:22:40.999Z</time></trkpt><trkpt lat="44.688523592269476" lon="2.5241420112564485"><ele>695.0</ele><time>2026-03-26T16:22:41.999Z</time></trkpt><trkpt lat="44.688502373652305" lon="2.5240012703834758"><ele>698.0</ele><time>2026-03-26T16:22:42.999Z</time></trkpt><trkpt lat="44.68842279940302" lon="2.523927001823524"><ele>701.0</ele><time>2026-03-26T16:22:43.998Z</time></trkpt><trkpt lat="44.68832944033255" lon="2.5238981112590637"><ele>701.0</ele><time>2026-03-26T16:22:44.998Z</time></trkpt><trkpt lat="44.68822786044475" lon="2.5239168694394762"><ele>701.0</ele><time>2026-03-26T16:22:45.998Z</time></trkpt><trkpt lat="44.68809836775168" lon="2.5239612857911924"><ele>701.0</ele><time>2026-03-26T16:22:46.998Z</time></trkpt><trkpt lat="44.68794184112101" lon="2.5239991180501966"><ele>701.0</ele><time>2026-03-26T16:22:47.998Z</time></trkpt><trkpt lat="44.68776942956602" lon="2.524010120385755"><ele>703.3333333333333</ele><time>2026-03-26T16:22:48.998Z</time></trkpt><trkpt lat="44.68760528449796" lon="2.5240305707839856"><ele>705.6666666666666</ele><time>2026-03-26T16:22:49.998Z</time></trkpt><trkpt lat="44.6874498958691" lon="2.5240727641520357"><ele>708.0</ele><time>2026-03-26T16:22:50.998Z</time></trkpt><trkpt lat="44.687302307246355" lon="2.524115979676345"><ele>708.0</ele><time>2026-03-26T16:22:51.998Z</time></trkpt><trkpt lat="44.68710445821725" lon="2.524202630378993"><ele>708.0</ele><time>2026-03-26T16:22:52.998Z</time></trkpt><trkpt lat="44.6869299448185" lon="2.5243074853022858"><ele>708.0</ele><time>2026-03-26T16:22:53.998Z</time></trkpt><trkpt lat="44.686775718099796" lon="2.524405102450692"><ele>709.0</ele><time>2026-03-26T16:22:54.998Z</time></trkpt><trkpt lat="44.686642692521986" lon="2.524458906960918"><ele>710.0</ele><time>2026-03-26T16:22:55.998Z</time></trkpt><trkpt lat="44.68651164976694" lon="2.524482052452944"><ele>711.0</ele><time>2026-03-26T16:22:56.998Z</time></trkpt><trkpt lat="44.68638108641985" lon="2.524589908837347"><ele>712.0</ele><time>2026-03-26T16:22:57.998Z</time></trkpt><trkpt lat="44.68622633586071" lon="2.5247286709766956"><ele>714.3333333333334</ele><time>2026-03-26T16:22:58.998Z</time></trkpt><trkpt lat="44.68608584324739" lon="2.5248816547391755"><ele>716.6666666666666</ele><time>2026-03-26T16:22:59.998Z</time></trkpt><trkpt lat="44.68597455360716" lon="2.5250638477604066"><ele>719.0</ele><time>2026-03-26T16:23:00.998Z</time></trkpt><trkpt lat="44.68589583678437" lon="2.525198548572996"><ele>719.0</ele><time>2026-03-26T16:23:01.998Z</time></trkpt><trkpt lat="44.68582568824488" lon="2.5253595072509842"><ele>719.0</ele><time>2026-03-26T16:23:02.998Z</time></trkpt><trkpt lat="44.68572708448605" lon="2.5254081957249435"><ele>719.0</ele><time>2026-03-26T16:23:03.998Z</time></trkpt><trkpt lat="44.685612763856405" lon="2.525426646383259"><ele>719.0</ele><time>2026-03-26T16:23:04.998Z</time></trkpt><trkpt lat="44.68548632452846" lon="2.5254184710707035"><ele>719.0</ele><time>2026-03-26T16:23:05.998Z</time></trkpt><trkpt lat="44.685387905104264" lon="2.525355430552635"><ele>719.0</ele><time>2026-03-26T16:23:06.998Z</time></trkpt><trkpt lat="44.68529342305056" lon="2.5252823693263786"><ele>719.0</ele><time>2026-03-26T16:23:07.998Z</time></trkpt><trkpt lat="44.68520118736872" lon="2.5251576737577515"><ele>719.0</ele><time>2026-03-26T16:23:08.998Z</time></trkpt><trkpt lat="44.68509890057345" lon="2.5249969770175302"><ele>720.6666666666666</ele><time>2026-03-26T16:23:09.998Z</time></trkpt><trkpt lat="44.6849913616651" lon="2.524795021666898"><ele>722.3333333333334</ele><time>2026-03-26T16:23:10.998Z</time></trkpt><trkpt lat="44.68489192596079" lon="2.524604702263128"><ele>724.0</ele><time>2026-03-26T16:23:11.998Z</time></trkpt><trkpt lat="44.68481353403487" lon="2.5244674686053434"><ele>724.8000000000001</ele><time>2026-03-26T16:23:12.998Z</time></trkpt><trkpt lat="44.68473818508915" lon="2.5243519511850514"><ele>725.6</ele><time>2026-03-26T16:23:13.998Z</time></trkpt><trkpt lat="44.68464381359664" lon="2.5242369950512433"><ele>726.4</ele><time>2026-03-26T16:23:14.998Z</time></trkpt><trkpt lat="44.684560426652624" lon="2.524155023341418"><ele>727.2</ele><time>2026-03-26T16:23:15.998Z</time></trkpt><trkpt lat="44.68453255868602" lon="2.5240144318476636"><ele>728.0</ele><time>2026-03-26T16:23:17.998Z</time></trkpt><trkpt lat="44.68457776678324" lon="2.523819777436416"><ele>730.25</ele><time>2026-03-26T16:23:19.998Z</time></trkpt><trkpt lat="44.68461799607814" lon="2.5236712413114066"><ele>732.5</ele><time>2026-03-26T16:23:20.998Z</time></trkpt><trkpt lat="44.684679542381836" lon="2.523470112823768"><ele>734.75</ele><time>2026-03-26T16:23:21.998Z</time></trkpt><trkpt lat="44.68474490876721" lon="2.523281993751195"><ele>737.0</ele><time>2026-03-26T16:23:22.998Z</time></trkpt><trkpt lat="44.684788939358484" lon="2.5231638739116016"><ele>737.0</ele><time>2026-03-26T16:23:23.998Z</time></trkpt><trkpt lat="44.684813113696215" lon="2.52306679773191"><ele>737.0</ele><time>2026-03-26T16:23:24.998Z</time></trkpt><trkpt lat="44.68479462765979" lon="2.5229397092993175"><ele>737.0</ele><time>2026-03-26T16:23:26.998Z</time></trkpt></trkseg></trk></gpx>